IBE4578 EDDF-LEAL
Flight info
| Callsign | IBE4578 |
|---|---|
| Flight time | 2h 7m |
| Altitude | 37000 |
| Route | ANEKI2L/18 ANEKI Y163 HERBI Y164 MOPAN DCT LUTIX DCT BENOT DCT NEMOS DCT GEVEA DCT INCUS DCT BALSI DCT RETNO DCT TUPOX DCT MTG DCT DIVKO DCT VATIR DCT PIVUS Z237 OKITI M603 GERVU |
| Aircraft | A320/M-SDE3FGHIRWY/LB1 |
Departure
| Time | 2026-04-15 11:18 |
|---|---|
| Airport | Frankfurt Main Airport (EDDF) |
Arrival
| Time | 2026-04-15 13:25 |
|---|---|
| Airport | Alicante-Elche Miguel Hernández Airport (LEAL) |
| Time | Latitude | Longitude | Altitude | Speed | Heading |
|---|---|---|---|---|---|
| 2026-04-15 10:45 | 50.05024 | 8.58531 | 365 ft | 0 kts | 339° |
| 2026-04-15 11:00 | 50.05001 | 8.58543 | 363 ft | 4 kts | 345° |
| 2026-04-15 11:00 | 50.04978 | 8.58554 | 361 ft | 4 kts | 336° |
| 2026-04-15 11:00 | 50.04955 | 8.58575 | 361 ft | 4 kts | 315° |
| 2026-04-15 11:00 | 50.04940 | 8.58608 | 359 ft | 4 kts | 284° |
| 2026-04-15 11:01 | 50.04938 | 8.58648 | 360 ft | 4 kts | 258° |
| 2026-04-15 11:01 | 50.04946 | 8.58688 | 366 ft | 4 kts | 243° |
| 2026-04-15 11:01 | 50.04960 | 8.58724 | 361 ft | 4 kts | 238° |
| 2026-04-15 11:01 | 50.04971 | 8.58756 | 363 ft | 1 kts | 248° |
| 2026-04-15 11:07 | 50.04964 | 8.58726 | 360 ft | 6 kts | 248° |
| 2026-04-15 11:07 | 50.04942 | 8.58635 | 362 ft | 12 kts | 250° |
| 2026-04-15 11:08 | 50.04912 | 8.58510 | 362 ft | 12 kts | 250° |
| 2026-04-15 11:08 | 50.04886 | 8.58401 | 363 ft | 10 kts | 249° |
| 2026-04-15 11:08 | 50.04863 | 8.58304 | 361 ft | 9 kts | 249° |
| 2026-04-15 11:08 | 50.04833 | 8.58181 | 359 ft | 15 kts | 250° |
| 2026-04-15 11:09 | 50.04791 | 8.58009 | 362 ft | 17 kts | 240° |
| 2026-04-15 11:09 | 50.04698 | 8.57966 | 362 ft | 14 kts | 161° |
| 2026-04-15 11:09 | 50.04674 | 8.57979 | 362 ft | 0 kts | 160° |
| 2026-04-15 11:10 | 50.04661 | 8.57986 | 365 ft | 7 kts | 160° |
| 2026-04-15 11:11 | 50.04579 | 8.58036 | 362 ft | 16 kts | 160° |
| 2026-04-15 11:11 | 50.04522 | 8.57936 | 364 ft | 14 kts | 253° |
| 2026-04-15 11:11 | 50.04485 | 8.57778 | 365 ft | 16 kts | 250° |
| 2026-04-15 11:11 | 50.04446 | 8.57613 | 360 ft | 16 kts | 249° |
| 2026-04-15 11:12 | 50.04407 | 8.57454 | 362 ft | 15 kts | 249° |
| 2026-04-15 11:12 | 50.04372 | 8.57305 | 360 ft | 14 kts | 249° |
| 2026-04-15 11:12 | 50.04336 | 8.57157 | 363 ft | 16 kts | 249° |
| 2026-04-15 11:12 | 50.04293 | 8.56973 | 363 ft | 20 kts | 250° |
| 2026-04-15 11:13 | 50.04241 | 8.56753 | 365 ft | 24 kts | 249° |
| 2026-04-15 11:13 | 50.04179 | 8.56496 | 365 ft | 27 kts | 249° |
| 2026-04-15 11:13 | 50.04111 | 8.56215 | 360 ft | 28 kts | 250° |
| 2026-04-15 11:13 | 50.04041 | 8.55919 | 359 ft | 29 kts | 249° |
| 2026-04-15 11:14 | 50.03969 | 8.55618 | 359 ft | 30 kts | 249° |
| 2026-04-15 11:14 | 50.03898 | 8.55321 | 361 ft | 29 kts | 249° |
| 2026-04-15 11:14 | 50.03827 | 8.55023 | 360 ft | 30 kts | 249° |
| 2026-04-15 11:14 | 50.03752 | 8.54712 | 359 ft | 31 kts | 250° |
| 2026-04-15 11:15 | 50.03678 | 8.54399 | 365 ft | 26 kts | 251° |
| 2026-04-15 11:15 | 50.03612 | 8.54122 | 361 ft | 28 kts | 249° |
| 2026-04-15 11:15 | 50.03542 | 8.53829 | 363 ft | 30 kts | 249° |
| 2026-04-15 11:15 | 50.03469 | 8.53523 | 364 ft | 31 kts | 250° |
| 2026-04-15 11:16 | 50.03393 | 8.53206 | 359 ft | 32 kts | 249° |
| 2026-04-15 11:16 | 50.03317 | 8.52890 | 363 ft | 25 kts | 250° |
| 2026-04-15 11:16 | 50.03263 | 8.52667 | 360 ft | 22 kts | 249° |
| 2026-04-15 11:16 | 50.03199 | 8.52596 | 360 ft | 0 kts | 181° |
| 2026-04-15 11:17 | 50.02995 | 8.52598 | 358 ft | 68 kts | 179° |
| 2026-04-15 11:17 | 50.02292 | 8.52604 | 366 ft | 131 kts | 179° |
| 2026-04-15 11:18 | 50.01230 | 8.52612 | 569 ft | 162 kts | 180° |
| 2026-04-15 11:18 | 50.00111 | 8.52630 | 1323 ft | 161 kts | 176° |
| 2026-04-15 11:18 | 49.98952 | 8.52711 | 1936 ft | 177 kts | 175° |
| 2026-04-15 11:18 | 49.97652 | 8.52820 | 2384 ft | 197 kts | 175° |
| 2026-04-15 11:19 | 49.96186 | 8.52933 | 2631 ft | 226 kts | 177° |
| 2026-04-15 11:19 | 49.94581 | 8.53026 | 3468 ft | 230 kts | 176° |
| 2026-04-15 11:19 | 49.92958 | 8.53134 | 3908 ft | 233 kts | 176° |
| 2026-04-15 11:19 | 49.91348 | 8.53247 | 3973 ft | 230 kts | 175° |
| 2026-04-15 11:20 | 49.89745 | 8.53362 | 4046 ft | 233 kts | 175° |
| 2026-04-15 11:20 | 49.88118 | 8.53474 | 4957 ft | 232 kts | 176° |
| 2026-04-15 11:20 | 49.86506 | 8.53582 | 5981 ft | 231 kts | 177° |
| 2026-04-15 11:20 | 49.84891 | 8.53690 | 6903 ft | 234 kts | 178° |
| 2026-04-15 11:21 | 49.83256 | 8.53799 | 7723 ft | 237 kts | 178° |
| 2026-04-15 11:21 | 49.81591 | 8.53914 | 8538 ft | 242 kts | 178° |
| 2026-04-15 11:21 | 49.79897 | 8.54031 | 9395 ft | 246 kts | 178° |
| 2026-04-15 11:21 | 49.78171 | 8.54131 | 10230 ft | 251 kts | 182° |
| 2026-04-15 11:22 | 49.76373 | 8.53934 | 10691 ft | 271 kts | 186° |
| 2026-04-15 11:22 | 49.74415 | 8.53671 | 11012 ft | 294 kts | 186° |
| 2026-04-15 11:22 | 49.72293 | 8.53378 | 11305 ft | 318 kts | 186° |
| 2026-04-15 11:22 | 49.70051 | 8.53073 | 11890 ft | 328 kts | 186° |
| 2026-04-15 11:23 | 49.67754 | 8.52765 | 12643 ft | 334 kts | 186° |
| 2026-04-15 11:23 | 49.65426 | 8.52455 | 13424 ft | 338 kts | 186° |
| 2026-04-15 11:23 | 49.63065 | 8.52141 | 14146 ft | 343 kts | 186° |
| 2026-04-15 11:23 | 49.60667 | 8.51826 | 14816 ft | 347 kts | 186° |
| 2026-04-15 11:24 | 49.58246 | 8.51509 | 15484 ft | 351 kts | 185° |
| 2026-04-15 11:24 | 49.55802 | 8.51190 | 16146 ft | 355 kts | 185° |
| 2026-04-15 11:24 | 49.53328 | 8.50868 | 16805 ft | 359 kts | 185° |
| 2026-04-15 11:24 | 49.50827 | 8.50540 | 17471 ft | 362 kts | 185° |
| 2026-04-15 11:25 | 49.48302 | 8.50208 | 18132 ft | 366 kts | 185° |
| 2026-04-15 11:25 | 49.45748 | 8.49875 | 18750 ft | 370 kts | 185° |
| 2026-04-15 11:25 | 49.44043 | 8.49651 | 19123 ft | 372 kts | 185° |
| 2026-04-15 11:25 | 49.41450 | 8.49308 | 19665 ft | 376 kts | 186° |
| 2026-04-15 11:26 | 49.38825 | 8.48964 | 20206 ft | 380 kts | 185° |
| 2026-04-15 11:26 | 49.36177 | 8.48621 | 20760 ft | 384 kts | 186° |
| 2026-04-15 11:26 | 49.33501 | 8.48276 | 21290 ft | 387 kts | 186° |
| 2026-04-15 11:26 | 49.30804 | 8.47929 | 21833 ft | 391 kts | 185° |
| 2026-04-15 11:27 | 49.28082 | 8.47579 | 22349 ft | 394 kts | 186° |
| 2026-04-15 11:27 | 49.25336 | 8.47223 | 22870 ft | 398 kts | 186° |
| 2026-04-15 11:27 | 49.22568 | 8.46865 | 23377 ft | 401 kts | 186° |
| 2026-04-15 11:27 | 49.19774 | 8.46501 | 23847 ft | 405 kts | 186° |
| 2026-04-15 11:28 | 49.16952 | 8.46129 | 24245 ft | 409 kts | 186° |
| 2026-04-15 11:28 | 49.14106 | 8.45755 | 24646 ft | 412 kts | 186° |
| 2026-04-15 11:28 | 49.11237 | 8.45377 | 25034 ft | 416 kts | 186° |
| 2026-04-15 11:28 | 49.08341 | 8.44997 | 25414 ft | 420 kts | 186° |
| 2026-04-15 11:29 | 49.05439 | 8.44422 | 25788 ft | 422 kts | 193° |
| 2026-04-15 11:29 | 49.02564 | 8.43429 | 26157 ft | 425 kts | 194° |
| 2026-04-15 11:29 | 48.99672 | 8.42417 | 26533 ft | 429 kts | 194° |
| 2026-04-15 11:29 | 48.96750 | 8.41394 | 26888 ft | 432 kts | 194° |
| 2026-04-15 11:30 | 48.93806 | 8.40365 | 27250 ft | 436 kts | 194° |
| 2026-04-15 11:30 | 48.90838 | 8.39335 | 27616 ft | 440 kts | 194° |
| 2026-04-15 11:30 | 48.87840 | 8.38301 | 27982 ft | 443 kts | 194° |
| 2026-04-15 11:30 | 48.84823 | 8.37260 | 28342 ft | 446 kts | 195° |
| 2026-04-15 11:31 | 48.81785 | 8.36208 | 28693 ft | 450 kts | 195° |
| 2026-04-15 11:31 | 48.78725 | 8.35146 | 29051 ft | 453 kts | 195° |
| 2026-04-15 11:31 | 48.75645 | 8.34057 | 29368 ft | 456 kts | 195° |
| 2026-04-15 11:31 | 48.72545 | 8.32928 | 29696 ft | 460 kts | 196° |
| 2026-04-15 11:32 | 48.69427 | 8.31776 | 30025 ft | 463 kts | 196° |
| 2026-04-15 11:32 | 48.66288 | 8.30614 | 30358 ft | 466 kts | 196° |
| 2026-04-15 11:32 | 48.63128 | 8.29452 | 30634 ft | 469 kts | 196° |
| 2026-04-15 11:32 | 48.59946 | 8.28290 | 30902 ft | 471 kts | 195° |
| 2026-04-15 11:33 | 48.56749 | 8.27133 | 31180 ft | 474 kts | 195° |
| 2026-04-15 11:33 | 48.53578 | 8.25988 | 31460 ft | 476 kts | 195° |
| 2026-04-15 11:33 | 48.50350 | 8.24820 | 31727 ft | 478 kts | 195° |
| 2026-04-15 11:33 | 48.47113 | 8.23644 | 32069 ft | 478 kts | 195° |
| 2026-04-15 11:34 | 48.43879 | 8.22466 | 32454 ft | 478 kts | 196° |
| 2026-04-15 11:34 | 48.40651 | 8.21290 | 32832 ft | 478 kts | 196° |
| 2026-04-15 11:34 | 48.37423 | 8.20112 | 33203 ft | 477 kts | 196° |
| 2026-04-15 11:34 | 48.34196 | 8.18933 | 33540 ft | 478 kts | 196° |
| 2026-04-15 11:35 | 48.30962 | 8.17753 | 33880 ft | 478 kts | 196° |
| 2026-04-15 11:35 | 48.27731 | 8.16574 | 34235 ft | 478 kts | 195° |
| 2026-04-15 11:35 | 48.24549 | 8.15179 | 34552 ft | 475 kts | 203° |
| 2026-04-15 11:35 | 48.21545 | 8.13164 | 34856 ft | 472 kts | 210° |
| 2026-04-15 11:36 | 48.18603 | 8.10971 | 35143 ft | 472 kts | 209° |
| 2026-04-15 11:36 | 48.15659 | 8.08788 | 35451 ft | 472 kts | 209° |
| 2026-04-15 11:36 | 48.12715 | 8.06618 | 35725 ft | 472 kts | 209° |
| 2026-04-15 11:36 | 48.09769 | 8.04455 | 36010 ft | 472 kts | 209° |
| 2026-04-15 11:37 | 48.06824 | 8.02295 | 36288 ft | 472 kts | 209° |
| 2026-04-15 11:37 | 48.03879 | 8.00129 | 36556 ft | 471 kts | 209° |
| 2026-04-15 11:37 | 48.00941 | 7.97968 | 36830 ft | 471 kts | 209° |
| 2026-04-15 11:37 | 47.98001 | 7.95806 | 37073 ft | 471 kts | 209° |
| 2026-04-15 11:38 | 47.95063 | 7.93647 | 37206 ft | 471 kts | 209° |
| 2026-04-15 11:38 | 47.92129 | 7.91496 | 37231 ft | 469 kts | 209° |
| 2026-04-15 11:38 | 47.86279 | 7.87225 | 37227 ft | 468 kts | 208° |
| 2026-04-15 11:39 | 47.80433 | 7.82972 | 37233 ft | 468 kts | 208° |
| 2026-04-15 11:39 | 47.74592 | 7.78717 | 37230 ft | 467 kts | 208° |
| 2026-04-15 11:40 | 47.68739 | 7.74468 | 37244 ft | 469 kts | 208° |
| 2026-04-15 11:40 | 47.62871 | 7.70226 | 37250 ft | 469 kts | 208° |
| 2026-04-15 11:41 | 47.57042 | 7.66026 | 37248 ft | 469 kts | 208° |
| 2026-04-15 11:41 | 47.51173 | 7.61807 | 37245 ft | 469 kts | 208° |
| 2026-04-15 11:42 | 47.45299 | 7.57589 | 37242 ft | 470 kts | 208° |
| 2026-04-15 11:42 | 47.39422 | 7.53372 | 37239 ft | 470 kts | 208° |
| 2026-04-15 11:43 | 47.33542 | 7.49168 | 37215 ft | 470 kts | 208° |
| 2026-04-15 11:43 | 47.27658 | 7.44978 | 37204 ft | 469 kts | 208° |
| 2026-04-15 11:44 | 47.21782 | 7.40810 | 37224 ft | 468 kts | 208° |
| 2026-04-15 11:44 | 47.16306 | 7.35789 | 37222 ft | 461 kts | 225° |
| 2026-04-15 11:45 | 47.12065 | 7.28874 | 37215 ft | 454 kts | 236° |
| 2026-04-15 11:45 | 47.08138 | 7.21602 | 37212 ft | 455 kts | 236° |
| 2026-04-15 11:46 | 47.04187 | 7.14357 | 37207 ft | 455 kts | 236° |
| 2026-04-15 11:46 | 47.00226 | 7.07120 | 37214 ft | 455 kts | 235° |
| 2026-04-15 11:47 | 46.96295 | 6.99948 | 37199 ft | 455 kts | 235° |
| 2026-04-15 11:47 | 46.92327 | 6.92728 | 37214 ft | 455 kts | 234° |
| 2026-04-15 11:48 | 46.87651 | 6.86414 | 37232 ft | 460 kts | 223° |
| 2026-04-15 11:48 | 46.82690 | 6.80520 | 37236 ft | 459 kts | 223° |
| 2026-04-15 11:49 | 46.77773 | 6.74670 | 37231 ft | 459 kts | 223° |
| 2026-04-15 11:49 | 46.72822 | 6.68795 | 37213 ft | 459 kts | 223° |
| 2026-04-15 11:50 | 46.67865 | 6.62925 | 37202 ft | 459 kts | 223° |
| 2026-04-15 11:50 | 46.62904 | 6.57062 | 37196 ft | 460 kts | 223° |
| 2026-04-15 11:51 | 46.57932 | 6.51204 | 37198 ft | 460 kts | 223° |
| 2026-04-15 11:51 | 46.52958 | 6.45350 | 37176 ft | 460 kts | 223° |
| 2026-04-15 11:52 | 46.47988 | 6.39530 | 37206 ft | 458 kts | 222° |
| 2026-04-15 11:52 | 46.43030 | 6.33733 | 37216 ft | 457 kts | 222° |
| 2026-04-15 11:53 | 46.38082 | 6.27954 | 37223 ft | 456 kts | 222° |
| 2026-04-15 11:53 | 46.33133 | 6.22198 | 37227 ft | 456 kts | 222° |
| 2026-04-15 11:54 | 46.28132 | 6.16531 | 37229 ft | 458 kts | 216° |
| 2026-04-15 11:54 | 46.22308 | 6.12703 | 37227 ft | 465 kts | 196° |
| 2026-04-15 11:55 | 46.15920 | 6.11118 | 37217 ft | 467 kts | 190° |
| 2026-04-15 11:55 | 46.09499 | 6.09697 | 37212 ft | 467 kts | 190° |
| 2026-04-15 11:56 | 46.03074 | 6.08269 | 37218 ft | 467 kts | 190° |
| 2026-04-15 11:56 | 45.96684 | 6.06852 | 37213 ft | 468 kts | 190° |
| 2026-04-15 11:57 | 45.87013 | 6.04718 | 37209 ft | 469 kts | 190° |
| 2026-04-15 11:58 | 45.80553 | 6.03283 | 37208 ft | 470 kts | 190° |
| 2026-04-15 11:58 | 45.74083 | 6.01851 | 37201 ft | 471 kts | 190° |
| 2026-04-15 11:59 | 45.67607 | 6.00437 | 37214 ft | 471 kts | 190° |
| 2026-04-15 11:59 | 45.61126 | 5.99020 | 37216 ft | 471 kts | 190° |
| 2026-04-15 12:00 | 45.54644 | 5.97592 | 37215 ft | 472 kts | 190° |
| 2026-04-15 12:00 | 45.48154 | 5.96171 | 37213 ft | 472 kts | 190° |
| 2026-04-15 12:01 | 45.41706 | 5.94428 | 37205 ft | 472 kts | 194° |
| 2026-04-15 12:01 | 45.35312 | 5.92297 | 37186 ft | 472 kts | 195° |
| 2026-04-15 12:02 | 45.28910 | 5.90159 | 37174 ft | 473 kts | 194° |
| 2026-04-15 12:02 | 45.22481 | 5.88147 | 37168 ft | 474 kts | 193° |
| 2026-04-15 12:03 | 45.16032 | 5.86180 | 37162 ft | 474 kts | 193° |
| 2026-04-15 12:03 | 45.09579 | 5.84206 | 37160 ft | 475 kts | 194° |
| 2026-04-15 12:04 | 45.03126 | 5.82214 | 37160 ft | 475 kts | 193° |
| 2026-04-15 12:04 | 44.96659 | 5.80220 | 37151 ft | 476 kts | 194° |
| 2026-04-15 12:05 | 44.90186 | 5.78224 | 37135 ft | 476 kts | 194° |
| 2026-04-15 12:05 | 44.83709 | 5.76232 | 37136 ft | 477 kts | 193° |
| 2026-04-15 12:06 | 44.77263 | 5.74259 | 37129 ft | 477 kts | 193° |
| 2026-04-15 12:06 | 44.70763 | 5.72283 | 37125 ft | 478 kts | 193° |
| 2026-04-15 12:07 | 44.64262 | 5.70310 | 37107 ft | 478 kts | 194° |
| 2026-04-15 12:07 | 44.57773 | 5.68334 | 37131 ft | 477 kts | 194° |
| 2026-04-15 12:08 | 44.51297 | 5.66370 | 37128 ft | 476 kts | 194° |
| 2026-04-15 12:08 | 44.44834 | 5.64399 | 37118 ft | 475 kts | 194° |
| 2026-04-15 12:09 | 44.38380 | 5.62391 | 37115 ft | 474 kts | 198° |
| 2026-04-15 12:09 | 44.32229 | 5.59182 | 37114 ft | 472 kts | 204° |
| 2026-04-15 12:10 | 44.26115 | 5.55819 | 37102 ft | 472 kts | 204° |
| 2026-04-15 12:10 | 44.19991 | 5.52471 | 37089 ft | 473 kts | 204° |
| 2026-04-15 12:11 | 44.13856 | 5.49137 | 37087 ft | 474 kts | 204° |
| 2026-04-15 12:11 | 44.07715 | 5.45803 | 37102 ft | 474 kts | 204° |
| 2026-04-15 12:12 | 44.01561 | 5.42463 | 37085 ft | 475 kts | 204° |
| 2026-04-15 12:12 | 43.95398 | 5.39126 | 37084 ft | 476 kts | 204° |
| 2026-04-15 12:13 | 43.89228 | 5.35785 | 37100 ft | 476 kts | 204° |
| 2026-04-15 12:13 | 43.83048 | 5.32448 | 37072 ft | 477 kts | 204° |
| 2026-04-15 12:14 | 43.76870 | 5.29115 | 37103 ft | 476 kts | 204° |
| 2026-04-15 12:14 | 43.71740 | 5.26353 | 37117 ft | 476 kts | 204° |
| 2026-04-15 12:15 | 43.65567 | 5.23049 | 37115 ft | 476 kts | 204° |
| 2026-04-15 12:15 | 43.59389 | 5.19744 | 37110 ft | 476 kts | 204° |
| 2026-04-15 12:16 | 43.53212 | 5.16439 | 37108 ft | 476 kts | 204° |
| 2026-04-15 12:16 | 43.47030 | 5.13142 | 37107 ft | 477 kts | 204° |
| 2026-04-15 12:17 | 43.40839 | 5.09848 | 37104 ft | 477 kts | 205° |
| 2026-04-15 12:17 | 43.35131 | 5.05381 | 37106 ft | 471 kts | 219° |
| 2026-04-15 12:18 | 43.29738 | 5.00272 | 37109 ft | 472 kts | 218° |
| 2026-04-15 12:18 | 43.24320 | 4.95175 | 37080 ft | 472 kts | 218° |
| 2026-04-15 12:19 | 43.18896 | 4.90101 | 37123 ft | 471 kts | 218° |
| 2026-04-15 12:19 | 43.13484 | 4.85047 | 37144 ft | 470 kts | 218° |
| 2026-04-15 12:20 | 43.08079 | 4.79992 | 37142 ft | 470 kts | 218° |
| 2026-04-15 12:20 | 43.02486 | 4.75298 | 37138 ft | 474 kts | 213° |
| 2026-04-15 12:21 | 42.96723 | 4.70938 | 37142 ft | 474 kts | 212° |
| 2026-04-15 12:21 | 42.90955 | 4.66578 | 37150 ft | 474 kts | 213° |
| 2026-04-15 12:22 | 42.85187 | 4.62209 | 37135 ft | 474 kts | 213° |
| 2026-04-15 12:22 | 42.79412 | 4.57848 | 37140 ft | 475 kts | 212° |
| 2026-04-15 12:23 | 42.73631 | 4.53513 | 37145 ft | 474 kts | 212° |
| 2026-04-15 12:23 | 42.67864 | 4.49192 | 37163 ft | 473 kts | 213° |
| 2026-04-15 12:24 | 42.62109 | 4.44875 | 37164 ft | 472 kts | 213° |
| 2026-04-15 12:24 | 42.56363 | 4.40571 | 37167 ft | 471 kts | 213° |
| 2026-04-15 12:25 | 42.50620 | 4.36281 | 37167 ft | 472 kts | 213° |
| 2026-04-15 12:25 | 42.44864 | 4.32004 | 37160 ft | 472 kts | 212° |
| 2026-04-15 12:26 | 42.39106 | 4.27729 | 37155 ft | 472 kts | 212° |
| 2026-04-15 12:26 | 42.33341 | 4.23457 | 37157 ft | 473 kts | 212° |
| 2026-04-15 12:27 | 42.27606 | 4.19217 | 37126 ft | 473 kts | 212° |
| 2026-04-15 12:27 | 42.21794 | 4.14926 | 37152 ft | 473 kts | 212° |
| 2026-04-15 12:28 | 42.16028 | 4.10674 | 37170 ft | 472 kts | 212° |
| 2026-04-15 12:28 | 42.10269 | 4.06433 | 37174 ft | 472 kts | 212° |
| 2026-04-15 12:29 | 42.04541 | 4.02237 | 37168 ft | 472 kts | 212° |
| 2026-04-15 12:29 | 41.98769 | 3.98017 | 37160 ft | 472 kts | 212° |
| 2026-04-15 12:30 | 41.92992 | 3.93804 | 37173 ft | 472 kts | 212° |
| 2026-04-15 12:30 | 41.87159 | 3.89709 | 37164 ft | 474 kts | 210° |
| 2026-04-15 12:31 | 41.81239 | 3.85793 | 37161 ft | 475 kts | 210° |
| 2026-04-15 12:31 | 41.75310 | 3.81890 | 37169 ft | 475 kts | 210° |
| 2026-04-15 12:32 | 41.69405 | 3.77944 | 37169 ft | 474 kts | 211° |
| 2026-04-15 12:32 | 41.63519 | 3.73991 | 37184 ft | 473 kts | 211° |
| 2026-04-15 12:33 | 41.57637 | 3.70055 | 37194 ft | 472 kts | 211° |
| 2026-04-15 12:33 | 41.51753 | 3.66149 | 37194 ft | 472 kts | 210° |
| 2026-04-15 12:34 | 41.45866 | 3.62255 | 37184 ft | 473 kts | 210° |
| 2026-04-15 12:34 | 41.39978 | 3.58344 | 37177 ft | 473 kts | 211° |
| 2026-04-15 12:35 | 41.34087 | 3.54435 | 37176 ft | 473 kts | 210° |
| 2026-04-15 12:35 | 41.28188 | 3.50540 | 37184 ft | 474 kts | 210° |
| 2026-04-15 12:36 | 41.22278 | 3.46650 | 37184 ft | 474 kts | 210° |
| 2026-04-15 12:36 | 41.16325 | 3.42853 | 37181 ft | 476 kts | 207° |
| 2026-04-15 12:37 | 41.10162 | 3.39582 | 37188 ft | 478 kts | 204° |
| 2026-04-15 12:37 | 41.03908 | 3.36560 | 37177 ft | 479 kts | 204° |
| 2026-04-15 12:38 | 40.97673 | 3.33454 | 37183 ft | 479 kts | 205° |
| 2026-04-15 12:38 | 40.91469 | 3.30239 | 37180 ft | 479 kts | 205° |
| 2026-04-15 12:39 | 40.85265 | 3.27015 | 37185 ft | 479 kts | 205° |
| 2026-04-15 12:39 | 40.79044 | 3.23825 | 37184 ft | 480 kts | 205° |
| 2026-04-15 12:40 | 40.72809 | 3.20653 | 37183 ft | 480 kts | 204° |
| 2026-04-15 12:40 | 40.66571 | 3.17482 | 37183 ft | 481 kts | 205° |
| 2026-04-15 12:41 | 40.60378 | 3.14191 | 37183 ft | 478 kts | 211° |
| 2026-04-15 12:41 | 40.54568 | 3.10006 | 37185 ft | 476 kts | 213° |
| 2026-04-15 12:42 | 40.48756 | 3.05829 | 37188 ft | 476 kts | 213° |
| 2026-04-15 12:42 | 40.42941 | 3.01668 | 37189 ft | 475 kts | 213° |
| 2026-04-15 12:43 | 40.37180 | 2.97546 | 37200 ft | 475 kts | 213° |
| 2026-04-15 12:43 | 40.31386 | 2.93412 | 37205 ft | 474 kts | 213° |
| 2026-04-15 12:44 | 40.25593 | 2.89285 | 37204 ft | 474 kts | 213° |
| 2026-04-15 12:44 | 40.19801 | 2.85169 | 37206 ft | 474 kts | 213° |
| 2026-04-15 12:45 | 40.14005 | 2.81054 | 37202 ft | 474 kts | 213° |
| 2026-04-15 12:45 | 40.08206 | 2.76946 | 37200 ft | 474 kts | 213° |
| 2026-04-15 12:46 | 40.02401 | 2.72843 | 37196 ft | 475 kts | 213° |
| 2026-04-15 12:46 | 39.96593 | 2.68743 | 37192 ft | 475 kts | 213° |
| 2026-04-15 12:47 | 39.90783 | 2.64653 | 37177 ft | 474 kts | 213° |
| 2026-04-15 12:47 | 39.84985 | 2.60582 | 37202 ft | 473 kts | 213° |
| 2026-04-15 12:48 | 39.79195 | 2.56524 | 37214 ft | 472 kts | 213° |
| 2026-04-15 12:48 | 39.73412 | 2.52477 | 37198 ft | 472 kts | 213° |
| 2026-04-15 12:49 | 39.67625 | 2.48434 | 37194 ft | 472 kts | 213° |
| 2026-04-15 12:49 | 39.61837 | 2.44391 | 37196 ft | 472 kts | 213° |
| 2026-04-15 12:50 | 39.56374 | 2.39820 | 37188 ft | 462 kts | 227° |
| 2026-04-15 12:50 | 39.52281 | 2.33613 | 37185 ft | 447 kts | 245° |
| 2026-04-15 12:51 | 39.49162 | 2.26687 | 37180 ft | 445 kts | 246° |
| 2026-04-15 12:51 | 39.46044 | 2.19772 | 37205 ft | 444 kts | 246° |
| 2026-04-15 12:52 | 39.42925 | 2.12880 | 37214 ft | 444 kts | 246° |
| 2026-04-15 12:52 | 39.39809 | 2.05997 | 37216 ft | 443 kts | 246° |
| 2026-04-15 12:53 | 39.36694 | 1.99127 | 37219 ft | 443 kts | 246° |
| 2026-04-15 12:53 | 39.33597 | 1.92309 | 37216 ft | 443 kts | 246° |
| 2026-04-15 12:54 | 39.30476 | 1.85464 | 37199 ft | 442 kts | 246° |
| 2026-04-15 12:54 | 39.27349 | 1.78608 | 36957 ft | 446 kts | 246° |
| 2026-04-15 12:54 | 39.25772 | 1.75159 | 36698 ft | 445 kts | 246° |
| 2026-04-15 12:55 | 39.24198 | 1.71726 | 36444 ft | 444 kts | 246° |
| 2026-04-15 12:55 | 39.22628 | 1.68309 | 36191 ft | 442 kts | 246° |
| 2026-04-15 12:55 | 39.21067 | 1.64903 | 35947 ft | 440 kts | 246° |
| 2026-04-15 12:55 | 39.19513 | 1.61513 | 35698 ft | 438 kts | 246° |
| 2026-04-15 12:56 | 39.17965 | 1.58140 | 35443 ft | 436 kts | 246° |
| 2026-04-15 12:56 | 39.16420 | 1.54783 | 35210 ft | 435 kts | 246° |
| 2026-04-15 12:56 | 39.14879 | 1.51443 | 34959 ft | 432 kts | 245° |
| 2026-04-15 12:56 | 39.13348 | 1.48131 | 34716 ft | 429 kts | 245° |
| 2026-04-15 12:57 | 39.11859 | 1.44822 | 34474 ft | 423 kts | 250° |
| 2026-04-15 12:57 | 39.10708 | 1.41380 | 34234 ft | 417 kts | 256° |
| 2026-04-15 12:57 | 39.09665 | 1.37905 | 33970 ft | 415 kts | 255° |
| 2026-04-15 12:57 | 39.08621 | 1.34447 | 33703 ft | 414 kts | 255° |
| 2026-04-15 12:58 | 39.07576 | 1.31000 | 33437 ft | 413 kts | 255° |
| 2026-04-15 12:58 | 39.06528 | 1.27572 | 33170 ft | 411 kts | 255° |
| 2026-04-15 12:58 | 39.05480 | 1.24156 | 32915 ft | 410 kts | 255° |
| 2026-04-15 12:58 | 39.04435 | 1.20754 | 32655 ft | 408 kts | 255° |
| 2026-04-15 12:59 | 39.02356 | 1.13990 | 32132 ft | 405 kts | 255° |
| 2026-04-15 12:59 | 39.01323 | 1.10635 | 31876 ft | 402 kts | 255° |
| 2026-04-15 12:59 | 39.00294 | 1.07299 | 31634 ft | 401 kts | 255° |
| 2026-04-15 13:00 | 38.99270 | 1.03979 | 31374 ft | 398 kts | 255° |
| 2026-04-15 13:00 | 38.98257 | 1.00692 | 30947 ft | 394 kts | 255° |
| 2026-04-15 13:00 | 38.97592 | 0.98532 | 30639 ft | 392 kts | 255° |
| 2026-04-15 13:00 | 38.96593 | 0.95291 | 30155 ft | 389 kts | 255° |
| 2026-04-15 13:01 | 38.95601 | 0.92077 | 29679 ft | 385 kts | 255° |
| 2026-04-15 13:01 | 38.94620 | 0.88902 | 29239 ft | 380 kts | 255° |
| 2026-04-15 13:01 | 38.93648 | 0.85765 | 28813 ft | 376 kts | 255° |
| 2026-04-15 13:01 | 38.92688 | 0.82664 | 28394 ft | 371 kts | 255° |
| 2026-04-15 13:02 | 38.91739 | 0.79601 | 27977 ft | 367 kts | 255° |
| 2026-04-15 13:02 | 38.90801 | 0.76567 | 27545 ft | 364 kts | 255° |
| 2026-04-15 13:02 | 38.89869 | 0.73555 | 27128 ft | 366 kts | 255° |
| 2026-04-15 13:02 | 38.88899 | 0.70386 | 26665 ft | 398 kts | 255° |
| 2026-04-15 13:03 | 38.87850 | 0.66955 | 26160 ft | 427 kts | 254° |
| 2026-04-15 13:03 | 38.86724 | 0.63294 | 25609 ft | 455 kts | 253° |
| 2026-04-15 13:03 | 38.85525 | 0.59443 | 25011 ft | 470 kts | 252° |
| 2026-04-15 13:03 | 38.84292 | 0.55540 | 24384 ft | 475 kts | 252° |
| 2026-04-15 13:04 | 38.83033 | 0.51582 | 23750 ft | 481 kts | 252° |
| 2026-04-15 13:04 | 38.81845 | 0.47583 | 23045 ft | 476 kts | 257° |
| 2026-04-15 13:04 | 38.80947 | 0.43517 | 22644 ft | 473 kts | 258° |
| 2026-04-15 13:04 | 38.80087 | 0.39487 | 22267 ft | 460 kts | 259° |
| 2026-04-15 13:05 | 38.79273 | 0.35621 | 22099 ft | 435 kts | 259° |
| 2026-04-15 13:05 | 38.78517 | 0.32015 | 21873 ft | 403 kts | 259° |
| 2026-04-15 13:05 | 38.77815 | 0.28660 | 21550 ft | 379 kts | 259° |
| 2026-04-15 13:05 | 38.77145 | 0.25448 | 20854 ft | 369 kts | 259° |
| 2026-04-15 13:06 | 38.76498 | 0.22336 | 20173 ft | 360 kts | 259° |
| 2026-04-15 13:06 | 38.75863 | 0.19309 | 19879 ft | 351 kts | 258° |
| 2026-04-15 13:06 | 38.75239 | 0.16328 | 19599 ft | 346 kts | 259° |
| 2026-04-15 13:06 | 38.74616 | 0.13375 | 19290 ft | 341 kts | 259° |
| 2026-04-15 13:07 | 38.74000 | 0.10461 | 18968 ft | 337 kts | 259° |
| 2026-04-15 13:07 | 38.73386 | 0.07575 | 18640 ft | 334 kts | 259° |
| 2026-04-15 13:07 | 38.72783 | 0.04751 | 18309 ft | 332 kts | 259° |
| 2026-04-15 13:07 | 38.72167 | 0.01869 | 17976 ft | 330 kts | 259° |
| 2026-04-15 13:08 | 38.71570 | -0.00922 | 17670 ft | 329 kts | 259° |
| 2026-04-15 13:08 | 38.70968 | -0.03736 | 17369 ft | 327 kts | 259° |
| 2026-04-15 13:08 | 38.70370 | -0.06535 | 17062 ft | 325 kts | 259° |
| 2026-04-15 13:08 | 38.69773 | -0.09321 | 16755 ft | 324 kts | 259° |
| 2026-04-15 13:09 | 38.69177 | -0.12097 | 16446 ft | 322 kts | 259° |
| 2026-04-15 13:09 | 38.68584 | -0.14859 | 16145 ft | 321 kts | 258° |
| 2026-04-15 13:09 | 38.67983 | -0.17644 | 15825 ft | 320 kts | 258° |
| 2026-04-15 13:09 | 38.67398 | -0.20346 | 15540 ft | 319 kts | 258° |
| 2026-04-15 13:10 | 38.66806 | -0.23078 | 15189 ft | 318 kts | 258° |
| 2026-04-15 13:10 | 38.66208 | -0.25837 | 14882 ft | 317 kts | 258° |
| 2026-04-15 13:10 | 38.65631 | -0.28510 | 14592 ft | 316 kts | 258° |
| 2026-04-15 13:10 | 38.65046 | -0.31213 | 14282 ft | 315 kts | 258° |
| 2026-04-15 13:11 | 38.64461 | -0.33907 | 13988 ft | 313 kts | 258° |
| 2026-04-15 13:11 | 38.63879 | -0.36585 | 13660 ft | 312 kts | 258° |
| 2026-04-15 13:11 | 38.63297 | -0.39249 | 13360 ft | 310 kts | 258° |
| 2026-04-15 13:11 | 38.62718 | -0.41897 | 13065 ft | 309 kts | 258° |
| 2026-04-15 13:12 | 38.62143 | -0.44536 | 12774 ft | 308 kts | 258° |
| 2026-04-15 13:12 | 38.61569 | -0.47165 | 12484 ft | 306 kts | 258° |
| 2026-04-15 13:12 | 38.60995 | -0.49784 | 12181 ft | 305 kts | 258° |
| 2026-04-15 13:12 | 38.60426 | -0.52392 | 11887 ft | 304 kts | 258° |
| 2026-04-15 13:13 | 38.59859 | -0.54989 | 11601 ft | 303 kts | 258° |
| 2026-04-15 13:13 | 38.59294 | -0.57576 | 11304 ft | 302 kts | 258° |
| 2026-04-15 13:13 | 38.58727 | -0.60151 | 11027 ft | 300 kts | 258° |
| 2026-04-15 13:13 | 38.58161 | -0.62712 | 10737 ft | 299 kts | 258° |
| 2026-04-15 13:14 | 38.57597 | -0.65267 | 10453 ft | 298 kts | 258° |
| 2026-04-15 13:14 | 38.57036 | -0.67814 | 10164 ft | 297 kts | 258° |
| 2026-04-15 13:14 | 38.56478 | -0.70350 | 9859 ft | 296 kts | 258° |
| 2026-04-15 13:14 | 38.55921 | -0.72872 | 9567 ft | 295 kts | 258° |
| 2026-04-15 13:15 | 38.55365 | -0.75389 | 9295 ft | 293 kts | 258° |
| 2026-04-15 13:15 | 38.54821 | -0.77849 | 9146 ft | 283 kts | 258° |
| 2026-04-15 13:15 | 38.54276 | -0.80213 | 9016 ft | 273 kts | 253° |
| 2026-04-15 13:15 | 38.53464 | -0.82365 | 8884 ft | 266 kts | 241° |
| 2026-04-15 13:16 | 38.52359 | -0.84239 | 8576 ft | 262 kts | 233° |
| 2026-04-15 13:16 | 38.51156 | -0.85962 | 8248 ft | 259 kts | 230° |
| 2026-04-15 13:16 | 38.49893 | -0.87589 | 7989 ft | 258 kts | 227° |
| 2026-04-15 13:16 | 38.48571 | -0.89126 | 7742 ft | 257 kts | 224° |
| 2026-04-15 13:17 | 38.47188 | -0.90564 | 7508 ft | 256 kts | 220° |
| 2026-04-15 13:17 | 38.45753 | -0.91896 | 7274 ft | 255 kts | 217° |
| 2026-04-15 13:17 | 38.44270 | -0.93128 | 7038 ft | 254 kts | 214° |
| 2026-04-15 13:17 | 38.42743 | -0.94253 | 6798 ft | 253 kts | 211° |
| 2026-04-15 13:18 | 38.41173 | -0.95268 | 6564 ft | 253 kts | 208° |
| 2026-04-15 13:18 | 38.39567 | -0.96165 | 6319 ft | 252 kts | 201° |
| 2026-04-15 13:18 | 38.37838 | -0.96414 | 6059 ft | 253 kts | 172° |
| 2026-04-15 13:18 | 38.36135 | -0.95843 | 5810 ft | 255 kts | 160° |
| 2026-04-15 13:19 | 38.34544 | -0.94607 | 5580 ft | 277 kts | 136° |
| 2026-04-15 13:19 | 38.33431 | -0.92663 | 5289 ft | 269 kts | 112° |
| 2026-04-15 13:19 | 38.32962 | -0.90395 | 4738 ft | 260 kts | 97° |
| 2026-04-15 13:19 | 38.32674 | -0.88204 | 4538 ft | 241 kts | 96° |
| 2026-04-15 13:20 | 38.32405 | -0.86188 | 4418 ft | 223 kts | 97° |
| 2026-04-15 13:20 | 38.32146 | -0.84281 | 4167 ft | 215 kts | 97° |
| 2026-04-15 13:20 | 38.31894 | -0.82439 | 3937 ft | 208 kts | 97° |
| 2026-04-15 13:20 | 38.31645 | -0.80625 | 3734 ft | 206 kts | 97° |
| 2026-04-15 13:21 | 38.31403 | -0.78855 | 3505 ft | 200 kts | 97° |
| 2026-04-15 13:21 | 38.31168 | -0.77148 | 3337 ft | 188 kts | 97° |
| 2026-04-15 13:21 | 38.30949 | -0.75554 | 3297 ft | 179 kts | 98° |
| 2026-04-15 13:21 | 38.30737 | -0.74014 | 3297 ft | 176 kts | 98° |
| 2026-04-15 13:22 | 38.30529 | -0.72503 | 3188 ft | 169 kts | 99° |
| 2026-04-15 13:22 | 38.30326 | -0.71029 | 2779 ft | 169 kts | 100° |
| 2026-04-15 13:22 | 38.30124 | -0.69566 | 2372 ft | 167 kts | 100° |
| 2026-04-15 13:22 | 38.29925 | -0.68124 | 1974 ft | 165 kts | 102° |
| 2026-04-15 13:23 | 38.29729 | -0.66707 | 1676 ft | 160 kts | 101° |
| 2026-04-15 13:23 | 38.29546 | -0.65377 | 1446 ft | 147 kts | 101° |
| 2026-04-15 13:23 | 38.29376 | -0.64143 | 1239 ft | 139 kts | 101° |
| 2026-04-15 13:23 | 38.29222 | -0.62954 | 1052 ft | 134 kts | 100° |
| 2026-04-15 13:24 | 38.29045 | -0.61795 | 854 ft | 132 kts | 101° |
| 2026-04-15 13:24 | 38.28881 | -0.60651 | 693 ft | 130 kts | 98° |
| 2026-04-15 13:24 | 38.28729 | -0.59536 | 506 ft | 127 kts | 99° |
| 2026-04-15 13:24 | 38.28577 | -0.58407 | 354 ft | 129 kts | 99° |
| 2026-04-15 13:25 | 38.28423 | -0.57293 | 173 ft | 127 kts | 99° |
| 2026-04-15 13:25 | 38.28278 | -0.56262 | 116 ft | 104 kts | 99° |
| 2026-04-15 13:25 | 38.28182 | -0.55568 | 96 ft | 55 kts | 100° |
| 2026-04-15 13:25 | 38.28135 | -0.55224 | 85 ft | 35 kts | 100° |
| 2026-04-15 13:26 | 38.28136 | -0.54936 | 77 ft | 31 kts | 77° |
| 2026-04-15 13:26 | 38.28192 | -0.54741 | 66 ft | 16 kts | 53° |
| 2026-04-15 13:26 | 38.28254 | -0.54785 | 71 ft | 11 kts | 282° |
| 2026-04-15 13:26 | 38.28263 | -0.54864 | 74 ft | 7 kts | 278° |
| 2026-04-15 13:27 | 38.28269 | -0.54914 | 66 ft | 6 kts | 280° |
| 2026-04-15 13:27 | 38.28281 | -0.55004 | 79 ft | 12 kts | 279° |
| 2026-04-15 13:27 | 38.28293 | -0.55090 | 82 ft | 8 kts | 281° |
| 2026-04-15 13:27 | 38.28309 | -0.55179 | 85 ft | 10 kts | 292° |
| 2026-04-15 13:28 | 38.28352 | -0.55211 | 88 ft | 7 kts | 16° |
| 2026-04-15 13:28 | 38.28405 | -0.55127 | 88 ft | 15 kts | 58° |
| 2026-04-15 13:28 | 38.28432 | -0.54993 | 90 ft | 15 kts | 45° |
| 2026-04-15 13:28 | 38.28532 | -0.54967 | 87 ft | 13 kts | 8° |
| 2026-04-15 13:29 | 38.28616 | -0.54947 | 88 ft | 12 kts | 10° |
| 2026-04-15 13:29 | 38.28695 | -0.54929 | 89 ft | 12 kts | 10° |
| 2026-04-15 13:29 | 38.28759 | -0.54930 | 89 ft | 8 kts | 305° |
| 2026-04-15 13:29 | 38.28767 | -0.54985 | 88 ft | 5 kts | 280° |
| 2026-04-15 13:30 | 38.28770 | -0.55004 | 89 ft | 0 kts | 281° |